sensor_id;sensor_type;location;lat;lon;timestamp;P1;durP1;ratioP1;P2;durP2;ratioP2
10991;SDS011;5549;47.028;15.514;2022-07-22T00:00:31;2.67;;;2.47;;
10991;SDS011;5549;47.028;15.514;2022-07-22T00:02:59;2.20;;;2.10;;
10991;SDS011;5549;47.028;15.514;2022-07-22T00:05:26;2.23;;;2.13;;
10991;SDS011;5549;47.028;15.514;2022-07-22T00:07:54;2.20;;;2.03;;
10991;SDS011;5549;47.028;15.514;2022-07-22T00:10:24;2.43;;;2.33;;
10991;SDS011;5549;47.028;15.514;2022-07-22T00:12:52;2.57;;;2.20;;
10991;SDS011;5549;47.028;15.514;2022-07-22T00:15:21;2.13;;;2.03;;
10991;SDS011;5549;47.028;15.514;2022-07-22T00:17:48;2.20;;;2.10;;
10991;SDS011;5549;47.028;15.514;2022-07-22T00:20:16;2.60;;;2.40;;
10991;SDS011;5549;47.028;15.514;2022-07-22T00:22:46;2.20;;;2.10;;
10991;SDS011;5549;47.028;15.514;2022-07-22T00:25:14;2.63;;;2.53;;
10991;SDS011;5549;47.028;15.514;2022-07-22T00:27:42;2.20;;;2.10;;
10991;SDS011;5549;47.028;15.514;2022-07-22T00:30:10;2.30;;;2.20;;
10991;SDS011;5549;47.028;15.514;2022-07-22T00:32:39;2.20;;;2.10;;
10991;SDS011;5549;47.028;15.514;2022-07-22T00:35:08;2.43;;;2.33;;
10991;SDS011;5549;47.028;15.514;2022-07-22T00:37:35;2.33;;;2.20;;
10991;SDS011;5549;47.028;15.514;2022-07-22T00:40:05;2.50;;;2.30;;
10991;SDS011;5549;47.028;15.514;2022-07-22T00:42:34;2.60;;;2.50;;
10991;SDS011;5549;47.028;15.514;2022-07-22T00:45:02;2.60;;;2.40;;
10991;SDS011;5549;47.028;15.514;2022-07-22T00:47:32;2.53;;;2.33;;
10991;SDS011;5549;47.028;15.514;2022-07-22T00:50:01;2.50;;;2.40;;
10991;SDS011;5549;47.028;15.514;2022-07-22T00:52:31;2.57;;;2.40;;
10991;SDS011;5549;47.028;15.514;2022-07-22T00:54:59;2.27;;;2.17;;
10991;SDS011;5549;47.028;15.514;2022-07-22T00:57:28;2.50;;;2.40;;
10991;SDS011;5549;47.028;15.514;2022-07-22T00:59:56;2.17;;;2.07;;
10991;SDS011;5549;47.028;15.514;2022-07-22T01:02:24;2.30;;;2.10;;
10991;SDS011;5549;47.028;15.514;2022-07-22T01:04:51;2.50;;;2.40;;
10991;SDS011;5549;47.028;15.514;2022-07-22T01:07:22;2.17;;;2.07;;
10991;SDS011;5549;47.028;15.514;2022-07-22T01:09:50;2.10;;;2.00;;
10991;SDS011;5549;47.028;15.514;2022-07-22T01:12:20;2.10;;;2.00;;
10991;SDS011;5549;47.028;15.514;2022-07-22T01:14:48;2.40;;;2.30;;
10991;SDS011;5549;47.028;15.514;2022-07-22T01:17:15;2.43;;;2.27;;
10991;SDS011;5549;47.028;15.514;2022-07-22T01:19:44;2.13;;;2.03;;
10991;SDS011;5549;47.028;15.514;2022-07-22T01:22:16;2.03;;;2.00;;
10991;SDS011;5549;47.028;15.514;2022-07-22T01:24:44;1.87;;;1.87;;
10991;SDS011;5549;47.028;15.514;2022-07-22T01:27:11;2.00;;;1.90;;
10991;SDS011;5549;47.028;15.514;2022-07-22T01:29:41;2.17;;;2.07;;
10991;SDS011;5549;47.028;15.514;2022-07-22T01:32:11;2.30;;;2.20;;
10991;SDS011;5549;47.028;15.514;2022-07-22T01:34:39;2.20;;;2.10;;
10991;SDS011;5549;47.028;15.514;2022-07-22T01:37:09;2.37;;;2.00;;
10991;SDS011;5549;47.028;15.514;2022-07-22T01:39:38;2.20;;;2.00;;
10991;SDS011;5549;47.028;15.514;2022-07-22T01:42:08;2.30;;;2.20;;
10991;SDS011;5549;47.028;15.514;2022-07-22T01:44:36;2.20;;;2.10;;
10991;SDS011;5549;47.028;15.514;2022-07-22T01:47:05;1.97;;;1.90;;
10991;SDS011;5549;47.028;15.514;2022-07-22T01:49:33;2.20;;;2.10;;
10991;SDS011;5549;47.028;15.514;2022-07-22T01:52:01;2.23;;;2.13;;
10991;SDS011;5549;47.028;15.514;2022-07-22T01:54:29;2.07;;;1.97;;
10991;SDS011;5549;47.028;15.514;2022-07-22T01:56:58;1.83;;;1.73;;
10991;SDS011;5549;47.028;15.514;2022-07-22T01:59:26;2.60;;;2.50;;
10991;SDS011;5549;47.028;15.514;2022-07-22T02:01:54;2.53;;;1.90;;
10991;SDS011;5549;47.028;15.514;2022-07-22T02:04:22;1.90;;;1.80;;
10991;SDS011;5549;47.028;15.514;2022-07-22T02:06:49;3.13;;;2.17;;
10991;SDS011;5549;47.028;15.514;2022-07-22T02:09:17;1.83;;;1.83;;
10991;SDS011;5549;47.028;15.514;2022-07-22T02:11:45;2.20;;;2.10;;
10991;SDS011;5549;47.028;15.514;2022-07-22T02:14:14;2.73;;;2.53;;
10991;SDS011;5549;47.028;15.514;2022-07-22T02:16:42;2.13;;;2.00;;
10991;SDS011;5549;47.028;15.514;2022-07-22T02:19:09;1.97;;;1.87;;
10991;SDS011;5549;47.028;15.514;2022-07-22T02:21:37;2.23;;;2.07;;
10991;SDS011;5549;47.028;15.514;2022-07-22T02:24:05;2.27;;;2.17;;
10991;SDS011;5549;47.028;15.514;2022-07-22T02:26:33;1.90;;;1.87;;
10991;SDS011;5549;47.028;15.514;2022-07-22T02:29:01;2.30;;;2.20;;
10991;SDS011;5549;47.028;15.514;2022-07-22T02:31:30;1.90;;;1.80;;
10991;SDS011;5549;47.028;15.514;2022-07-22T02:34:00;2.40;;;2.30;;
10991;SDS011;5549;47.028;15.514;2022-07-22T02:36:28;1.80;;;1.70;;
10991;SDS011;5549;47.028;15.514;2022-07-22T02:38:55;1.80;;;1.80;;
10991;SDS011;5549;47.028;15.514;2022-07-22T02:41:23;2.30;;;2.13;;
10991;SDS011;5549;47.028;15.514;2022-07-22T02:43:51;2.43;;;2.33;;
10991;SDS011;5549;47.028;15.514;2022-07-22T02:46:22;2.47;;;2.37;;
10991;SDS011;5549;47.028;15.514;2022-07-22T02:48:52;2.63;;;2.43;;
10991;SDS011;5549;47.028;15.514;2022-07-22T02:51:20;2.50;;;2.30;;
10991;SDS011;5549;47.028;15.514;2022-07-22T02:53:50;2.37;;;2.17;;
10991;SDS011;5549;47.028;15.514;2022-07-22T02:56:18;2.77;;;2.57;;
10991;SDS011;5549;47.028;15.514;2022-07-22T02:58:48;2.13;;;2.10;;
10991;SDS011;5549;47.028;15.514;2022-07-22T03:01:18;2.27;;;2.13;;
10991;SDS011;5549;47.028;15.514;2022-07-22T03:03:48;2.50;;;2.40;;
10991;SDS011;5549;47.028;15.514;2022-07-22T03:06:17;2.97;;;2.27;;
10991;SDS011;5549;47.028;15.514;2022-07-22T03:08:46;2.47;;;2.37;;
10991;SDS011;5549;47.028;15.514;2022-07-22T03:11:18;2.30;;;2.20;;
10991;SDS011;5549;47.028;15.514;2022-07-22T03:13:52;2.07;;;2.07;;
10991;SDS011;5549;47.028;15.514;2022-07-22T03:16:20;2.50;;;2.33;;
10991;SDS011;5549;47.028;15.514;2022-07-22T03:18:52;2.70;;;2.50;;
10991;SDS011;5549;47.028;15.514;2022-07-22T03:21:22;2.50;;;2.40;;
10991;SDS011;5549;47.028;15.514;2022-07-22T03:23:51;2.40;;;2.30;;
10991;SDS011;5549;47.028;15.514;2022-07-22T03:26:22;2.50;;;2.40;;
10991;SDS011;5549;47.028;15.514;2022-07-22T03:28:51;2.20;;;2.10;;
10991;SDS011;5549;47.028;15.514;2022-07-22T03:31:19;2.37;;;2.27;;
10991;SDS011;5549;47.028;15.514;2022-07-22T03:33:50;2.50;;;2.30;;
10991;SDS011;5549;47.028;15.514;2022-07-22T03:36:18;2.60;;;2.50;;
10991;SDS011;5549;47.028;15.514;2022-07-22T03:38:47;2.47;;;2.37;;
10991;SDS011;5549;47.028;15.514;2022-07-22T03:41:15;2.70;;;2.50;;
10991;SDS011;5549;47.028;15.514;2022-07-22T03:43:44;2.10;;;2.00;;
10991;SDS011;5549;47.028;15.514;2022-07-22T03:46:14;3.00;;;2.80;;
10991;SDS011;5549;47.028;15.514;2022-07-22T03:48:41;2.97;;;2.87;;
10991;SDS011;5549;47.028;15.514;2022-07-22T03:51:11;3.07;;;2.73;;
10991;SDS011;5549;47.028;15.514;2022-07-22T03:53:39;3.37;;;3.13;;
10991;SDS011;5549;47.028;15.514;2022-07-22T03:56:08;4.10;;;3.80;;
10991;SDS011;5549;47.028;15.514;2022-07-22T03:58:39;3.97;;;3.67;;
10991;SDS011;5549;47.028;15.514;2022-07-22T04:01:07;4.93;;;4.43;;
10991;SDS011;5549;47.028;15.514;2022-07-22T04:03:35;4.77;;;4.37;;
10991;SDS011;5549;47.028;15.514;2022-07-22T04:06:03;5.17;;;4.77;;
10991;SDS011;5549;47.028;15.514;2022-07-22T04:08:34;5.00;;;4.60;;
10991;SDS011;5549;47.028;15.514;2022-07-22T04:11:04;5.43;;;4.63;;
10991;SDS011;5549;47.028;15.514;2022-07-22T04:13:33;4.83;;;4.43;;
10991;SDS011;5549;47.028;15.514;2022-07-22T04:16:00;5.07;;;4.67;;
10991;SDS011;5549;47.028;15.514;2022-07-22T04:18:29;5.00;;;4.60;;
10991;SDS011;5549;47.028;15.514;2022-07-22T04:20:59;8.00;;;5.20;;
10991;SDS011;5549;47.028;15.514;2022-07-22T04:23:27;5.47;;;4.97;;
10991;SDS011;5549;47.028;15.514;2022-07-22T04:25:55;5.57;;;5.07;;
10991;SDS011;5549;47.028;15.514;2022-07-22T04:28:25;5.47;;;4.97;;
10991;SDS011;5549;47.028;15.514;2022-07-22T04:30:54;5.17;;;4.77;;
10991;SDS011;5549;47.028;15.514;2022-07-22T04:33:22;5.57;;;5.07;;
10991;SDS011;5549;47.028;15.514;2022-07-22T04:35:49;5.70;;;5.10;;
10991;SDS011;5549;47.028;15.514;2022-07-22T04:38:17;9.87;;;5.70;;
10991;SDS011;5549;47.028;15.514;2022-07-22T04:40:47;6.00;;;5.50;;
10991;SDS011;5549;47.028;15.514;2022-07-22T04:43:15;6.00;;;5.50;;
10991;SDS011;5549;47.028;15.514;2022-07-22T04:45:42;6.27;;;5.67;;
10991;SDS011;5549;47.028;15.514;2022-07-22T04:48:11;5.60;;;5.20;;
10991;SDS011;5549;47.028;15.514;2022-07-22T04:50:39;5.63;;;5.13;;
10991;SDS011;5549;47.028;15.514;2022-07-22T04:53:06;5.97;;;5.37;;
10991;SDS011;5549;47.028;15.514;2022-07-22T04:55:34;5.73;;;5.33;;
10991;SDS011;5549;47.028;15.514;2022-07-22T04:58:02;6.10;;;5.57;;
10991;SDS011;5549;47.028;15.514;2022-07-22T05:00:30;5.27;;;4.77;;
10991;SDS011;5549;47.028;15.514;2022-07-22T05:02:58;6.67;;;5.63;;
10991;SDS011;5549;47.028;15.514;2022-07-22T05:05:29;5.73;;;5.23;;
10991;SDS011;5549;47.028;15.514;2022-07-22T05:07:59;5.73;;;5.33;;
10991;SDS011;5549;47.028;15.514;2022-07-22T05:10:29;6.37;;;5.83;;
10991;SDS011;5549;47.028;15.514;2022-07-22T05:12:57;5.83;;;5.33;;
10991;SDS011;5549;47.028;15.514;2022-07-22T05:15:25;6.13;;;5.60;;
10991;SDS011;5549;47.028;15.514;2022-07-22T05:17:55;5.73;;;5.20;;
10991;SDS011;5549;47.028;15.514;2022-07-22T05:20:25;5.63;;;5.20;;
10991;SDS011;5549;47.028;15.514;2022-07-22T05:22:57;5.70;;;5.20;;
10991;SDS011;5549;47.028;15.514;2022-07-22T05:25:27;5.93;;;5.30;;
10991;SDS011;5549;47.028;15.514;2022-07-22T05:27:55;5.97;;;5.40;;
10991;SDS011;5549;47.028;15.514;2022-07-22T05:30:23;5.93;;;5.33;;
10991;SDS011;5549;47.028;15.514;2022-07-22T05:32:53;5.80;;;5.23;;
10991;SDS011;5549;47.028;15.514;2022-07-22T05:35:23;5.33;;;4.93;;
10991;SDS011;5549;47.028;15.514;2022-07-22T05:37:51;5.47;;;5.00;;
10991;SDS011;5549;47.028;15.514;2022-07-22T05:40:20;6.27;;;5.67;;
10991;SDS011;5549;47.028;15.514;2022-07-22T05:42:47;5.83;;;5.33;;
10991;SDS011;5549;47.028;15.514;2022-07-22T05:45:15;5.50;;;5.10;;
10991;SDS011;5549;47.028;15.514;2022-07-22T05:47:46;5.30;;;4.87;;
10991;SDS011;5549;47.028;15.514;2022-07-22T05:50:16;5.57;;;5.07;;
10991;SDS011;5549;47.028;15.514;2022-07-22T05:52:45;6.17;;;5.63;;
10991;SDS011;5549;47.028;15.514;2022-07-22T05:55:13;5.60;;;5.10;;
10991;SDS011;5549;47.028;15.514;2022-07-22T05:57:42;4.30;;;3.93;;
10991;SDS011;5549;47.028;15.514;2022-07-22T06:00:10;4.73;;;4.20;;
10991;SDS011;5549;47.028;15.514;2022-07-22T06:02:38;4.00;;;3.80;;
10991;SDS011;5549;47.028;15.514;2022-07-22T06:05:08;4.57;;;4.27;;
10991;SDS011;5549;47.028;15.514;2022-07-22T06:07:38;4.20;;;3.87;;
10991;SDS011;5549;47.028;15.514;2022-07-22T06:10:08;4.67;;;4.27;;
10991;SDS011;5549;47.028;15.514;2022-07-22T06:12:36;4.87;;;4.37;;
10991;SDS011;5549;47.028;15.514;2022-07-22T06:15:08;4.13;;;3.83;;
10991;SDS011;5549;47.028;15.514;2022-07-22T06:17:38;4.53;;;4.23;;
10991;SDS011;5549;47.028;15.514;2022-07-22T06:20:09;4.47;;;4.17;;
10991;SDS011;5549;47.028;15.514;2022-07-22T06:22:39;4.73;;;4.20;;
10991;SDS011;5549;47.028;15.514;2022-07-22T06:25:09;5.40;;;4.47;;
10991;SDS011;5549;47.028;15.514;2022-07-22T06:27:37;4.40;;;4.13;;
10991;SDS011;5549;47.028;15.514;2022-07-22T06:30:09;4.87;;;4.50;;
10991;SDS011;5549;47.028;15.514;2022-07-22T06:32:37;4.90;;;4.50;;
10991;SDS011;5549;47.028;15.514;2022-07-22T06:35:05;4.03;;;3.70;;
10991;SDS011;5549;47.028;15.514;2022-07-22T06:37:35;4.40;;;4.10;;
10991;SDS011;5549;47.028;15.514;2022-07-22T06:40:05;4.17;;;3.70;;
10991;SDS011;5549;47.028;15.514;2022-07-22T06:42:34;4.20;;;3.90;;
10991;SDS011;5549;47.028;15.514;2022-07-22T06:45:06;4.23;;;3.93;;
10991;SDS011;5549;47.028;15.514;2022-07-22T06:47:38;4.20;;;3.90;;
10991;SDS011;5549;47.028;15.514;2022-07-22T06:50:08;4.13;;;3.83;;
10991;SDS011;5549;47.028;15.514;2022-07-22T06:52:39;3.93;;;3.57;;
10991;SDS011;5549;47.028;15.514;2022-07-22T06:55:10;3.50;;;3.30;;
10991;SDS011;5549;47.028;15.514;2022-07-22T06:57:39;4.00;;;3.70;;
10991;SDS011;5549;47.028;15.514;2022-07-22T07:00:08;3.80;;;3.60;;
10991;SDS011;5549;47.028;15.514;2022-07-22T07:02:37;4.10;;;3.80;;
10991;SDS011;5549;47.028;15.514;2022-07-22T07:05:05;3.93;;;3.63;;
10991;SDS011;5549;47.028;15.514;2022-07-22T07:07:36;4.10;;;3.80;;
10991;SDS011;5549;47.028;15.514;2022-07-22T07:10:04;4.03;;;3.83;;
10991;SDS011;5549;47.028;15.514;2022-07-22T07:12:34;4.63;;;3.67;;
10991;SDS011;5549;47.028;15.514;2022-07-22T07:15:05;3.37;;;3.17;;
10991;SDS011;5549;47.028;15.514;2022-07-22T07:17:38;4.47;;;4.17;;
10991;SDS011;5549;47.028;15.514;2022-07-22T07:20:06;4.30;;;3.90;;
10991;SDS011;5549;47.028;15.514;2022-07-22T07:22:34;3.87;;;3.67;;
10991;SDS011;5549;47.028;15.514;2022-07-22T07:25:03;4.10;;;3.80;;
10991;SDS011;5549;47.028;15.514;2022-07-22T07:27:31;4.13;;;3.83;;
10991;SDS011;5549;47.028;15.514;2022-07-22T07:30:01;4.13;;;3.80;;
10991;SDS011;5549;47.028;15.514;2022-07-22T07:32:34;3.43;;;3.23;;
10991;SDS011;5549;47.028;15.514;2022-07-22T07:35:04;4.07;;;3.77;;
10991;SDS011;5549;47.028;15.514;2022-07-22T07:37:35;4.20;;;3.90;;
10991;SDS011;5549;47.028;15.514;2022-07-22T07:40:04;3.50;;;3.30;;
10991;SDS011;5549;47.028;15.514;2022-07-22T07:42:34;3.47;;;3.27;;
10991;SDS011;5549;47.028;15.514;2022-07-22T07:45:01;4.00;;;3.70;;
10991;SDS011;5549;47.028;15.514;2022-07-22T07:47:34;3.90;;;3.60;;
10991;SDS011;5549;47.028;15.514;2022-07-22T07:50:02;4.40;;;4.10;;
10991;SDS011;5549;47.028;15.514;2022-07-22T07:52:30;4.30;;;4.00;;
10991;SDS011;5549;47.028;15.514;2022-07-22T07:55:02;4.33;;;3.93;;
10991;SDS011;5549;47.028;15.514;2022-07-22T07:57:33;3.83;;;3.63;;
10991;SDS011;5549;47.028;15.514;2022-07-22T08:00:06;4.17;;;3.87;;
10991;SDS011;5549;47.028;15.514;2022-07-22T08:02:38;4.23;;;3.40;;
10991;SDS011;5549;47.028;15.514;2022-07-22T08:05:06;3.90;;;3.70;;
10991;SDS011;5549;47.028;15.514;2022-07-22T08:07:36;4.03;;;3.73;;
10991;SDS011;5549;47.028;15.514;2022-07-22T08:13:10;4.03;;;3.73;;
10991;SDS011;5549;47.028;15.514;2022-07-22T08:15:38;4.90;;;4.50;;
10991;SDS011;5549;47.028;15.514;2022-07-22T08:18:07;4.47;;;4.17;;
10991;SDS011;5549;47.028;15.514;2022-07-22T08:20:35;4.63;;;4.27;;
10991;SDS011;5549;47.028;15.514;2022-07-22T08:23:02;4.20;;;3.80;;
10991;SDS011;5549;47.028;15.514;2022-07-22T08:25:30;3.77;;;3.57;;
10991;SDS011;5549;47.028;15.514;2022-07-22T08:27:58;4.17;;;3.87;;
10991;SDS011;5549;47.028;15.514;2022-07-22T08:30:25;4.53;;;4.03;;
10991;SDS011;5549;47.028;15.514;2022-07-22T08:32:54;4.17;;;3.87;;
10991;SDS011;5549;47.028;15.514;2022-07-22T08:35:24;4.10;;;3.80;;
10991;SDS011;5549;47.028;15.514;2022-07-22T08:37:51;4.40;;;4.10;;
10991;SDS011;5549;47.028;15.514;2022-07-22T08:40:19;4.93;;;4.30;;
10991;SDS011;5549;47.028;15.514;2022-07-22T08:42:47;4.07;;;3.87;;
10991;SDS011;5549;47.028;15.514;2022-07-22T08:45:18;4.40;;;4.10;;
10991;SDS011;5549;47.028;15.514;2022-07-22T08:47:47;4.43;;;4.13;;
10991;SDS011;5549;47.028;15.514;2022-07-22T08:50:19;4.80;;;4.50;;
10991;SDS011;5549;47.028;15.514;2022-07-22T08:52:48;4.40;;;4.10;;
10991;SDS011;5549;47.028;15.514;2022-07-22T08:55:18;4.00;;;3.80;;
10991;SDS011;5549;47.028;15.514;2022-07-22T08:57:47;4.70;;;4.40;;
10991;SDS011;5549;47.028;15.514;2022-07-22T09:00:16;4.57;;;4.17;;
10991;SDS011;5549;47.028;15.514;2022-07-22T09:02:46;4.33;;;4.03;;
10991;SDS011;5549;47.028;15.514;2022-07-22T09:05:15;5.13;;;4.70;;
10991;SDS011;5549;47.028;15.514;2022-07-22T09:07:45;4.83;;;4.43;;
10991;SDS011;5549;47.028;15.514;2022-07-22T09:10:15;4.53;;;4.17;;
10991;SDS011;5549;47.028;15.514;2022-07-22T09:12:51;4.20;;;3.90;;
10991;SDS011;5549;47.028;15.514;2022-07-22T09:15:28;4.30;;;4.00;;
10991;SDS011;5549;47.028;15.514;2022-07-22T09:17:58;4.53;;;4.23;;
10991;SDS011;5549;47.028;15.514;2022-07-22T09:20:29;4.37;;;4.17;;
10991;SDS011;5549;47.028;15.514;2022-07-22T09:22:58;4.30;;;4.00;;
10991;SDS011;5549;47.028;15.514;2022-07-22T09:25:28;4.43;;;4.13;;
10991;SDS011;5549;47.028;15.514;2022-07-22T09:28:08;4.30;;;3.90;;
10991;SDS011;5549;47.028;15.514;2022-07-22T09:30:45;4.37;;;4.07;;
10991;SDS011;5549;47.028;15.514;2022-07-22T09:33:15;4.60;;;4.30;;
10991;SDS011;5549;47.028;15.514;2022-07-22T09:35:46;4.50;;;4.20;;
10991;SDS011;5549;47.028;15.514;2022-07-22T09:38:15;4.57;;;4.27;;
10991;SDS011;5549;47.028;15.514;2022-07-22T09:40:47;4.50;;;4.20;;
10991;SDS011;5549;47.028;15.514;2022-07-22T09:43:18;4.70;;;4.40;;
10991;SDS011;5549;47.028;15.514;2022-07-22T09:45:47;7.80;;;4.43;;
10991;SDS011;5549;47.028;15.514;2022-07-22T09:48:17;4.40;;;4.10;;
10991;SDS011;5549;47.028;15.514;2022-07-22T09:50:49;4.80;;;4.50;;
10991;SDS011;5549;47.028;15.514;2022-07-22T09:53:20;4.17;;;3.87;;
10991;SDS011;5549;47.028;15.514;2022-07-22T09:55:51;4.23;;;3.83;;
10991;SDS011;5549;47.028;15.514;2022-07-22T09:58:21;4.27;;;3.87;;
10991;SDS011;5549;47.028;15.514;2022-07-22T10:00:52;5.93;;;4.27;;
10991;SDS011;5549;47.028;15.514;2022-07-22T10:03:23;5.33;;;4.83;;
10991;SDS011;5549;47.028;15.514;2022-07-22T10:05:53;4.57;;;4.27;;
10991;SDS011;5549;47.028;15.514;2022-07-22T10:08:26;4.20;;;3.93;;
10991;SDS011;5549;47.028;15.514;2022-07-22T10:10:59;4.20;;;4.00;;
10991;SDS011;5549;47.028;15.514;2022-07-22T10:13:29;4.73;;;4.33;;
10991;SDS011;5549;47.028;15.514;2022-07-22T10:15:59;4.50;;;4.20;;
10991;SDS011;5549;47.028;15.514;2022-07-22T10:18:28;4.70;;;4.40;;
10991;SDS011;5549;47.028;15.514;2022-07-22T10:21:00;3.87;;;3.67;;
10991;SDS011;5549;47.028;15.514;2022-07-22T10:23:30;4.70;;;4.20;;
10991;SDS011;5549;47.028;15.514;2022-07-22T10:26:00;4.93;;;3.67;;
10991;SDS011;5549;47.028;15.514;2022-07-22T10:28:32;4.60;;;4.20;;
10991;SDS011;5549;47.028;15.514;2022-07-22T10:31:18;5.13;;;4.73;;
10991;SDS011;5549;47.028;15.514;2022-07-22T10:33:48;4.57;;;4.27;;
10991;SDS011;5549;47.028;15.514;2022-07-22T10:36:31;4.47;;;4.17;;
10991;SDS011;5549;47.028;15.514;2022-07-22T10:39:02;4.70;;;4.40;;
10991;SDS011;5549;47.028;15.514;2022-07-22T10:41:38;4.47;;;4.17;;
10991;SDS011;5549;47.028;15.514;2022-07-22T10:44:10;4.40;;;4.10;;
10991;SDS011;5549;47.028;15.514;2022-07-22T10:46:48;4.80;;;4.50;;
10991;SDS011;5549;47.028;15.514;2022-07-22T10:49:18;4.60;;;4.23;;
10991;SDS011;5549;47.028;15.514;2022-07-22T10:57:48;4.67;;;4.33;;
10991;SDS011;5549;47.028;15.514;2022-07-22T11:00:16;4.70;;;4.40;;
10991;SDS011;5549;47.028;15.514;2022-07-22T11:02:44;4.83;;;4.47;;
10991;SDS011;5549;47.028;15.514;2022-07-22T11:05:12;5.00;;;4.60;;
10991;SDS011;5549;47.028;15.514;2022-07-22T11:07:42;5.30;;;4.10;;
10991;SDS011;5549;47.028;15.514;2022-07-22T11:10:12;4.77;;;4.47;;
10991;SDS011;5549;47.028;15.514;2022-07-22T11:12:41;6.33;;;5.03;;
10991;SDS011;5549;47.028;15.514;2022-07-22T11:15:11;4.03;;;3.83;;
10991;SDS011;5549;47.028;15.514;2022-07-22T11:17:39;4.47;;;4.17;;
10991;SDS011;5549;47.028;15.514;2022-07-22T11:20:09;5.13;;;4.70;;
10991;SDS011;5549;47.028;15.514;2022-07-22T11:22:38;4.63;;;4.23;;
10991;SDS011;5549;47.028;15.514;2022-07-22T11:25:07;4.80;;;4.30;;
10991;SDS011;5549;47.028;15.514;2022-07-22T11:27:38;4.13;;;3.83;;
10991;SDS011;5549;47.028;15.514;2022-07-22T11:30:08;4.40;;;4.10;;
10991;SDS011;5549;47.028;15.514;2022-07-22T11:32:42;4.87;;;4.47;;
10991;SDS011;5549;47.028;15.514;2022-07-22T11:35:10;4.87;;;4.03;;
10991;SDS011;5549;47.028;15.514;2022-07-22T11:37:39;4.20;;;3.80;;
10991;SDS011;5549;47.028;15.514;2022-07-22T11:40:07;4.43;;;4.13;;
10991;SDS011;5549;47.028;15.514;2022-07-22T11:42:39;4.13;;;3.83;;
10991;SDS011;5549;47.028;15.514;2022-07-22T11:45:07;4.00;;;3.80;;
10991;SDS011;5549;47.028;15.514;2022-07-22T11:47:35;4.50;;;4.10;;
10991;SDS011;5549;47.028;15.514;2022-07-22T11:50:05;4.30;;;3.90;;
10991;SDS011;5549;47.028;15.514;2022-07-22T11:52:34;4.20;;;4.00;;
10991;SDS011;5549;47.028;15.514;2022-07-22T11:55:02;4.37;;;4.07;;
10991;SDS011;5549;47.028;15.514;2022-07-22T11:57:46;4.37;;;4.10;;
10991;SDS011;5549;47.028;15.514;2022-07-22T12:00:14;4.77;;;4.47;;
10991;SDS011;5549;47.028;15.514;2022-07-22T12:02:44;4.32;;;4.03;;
10991;SDS011;5549;47.028;15.514;2022-07-22T12:05:13;4.32;;;4.07;;
10991;SDS011;5549;47.028;15.514;2022-07-22T12:07:41;4.30;;;4.00;;
10991;SDS011;5549;47.028;15.514;2022-07-22T12:10:09;4.50;;;4.10;;
10991;SDS011;5549;47.028;15.514;2022-07-22T12:12:39;4.95;;;4.30;;
10991;SDS011;5549;47.028;15.514;2022-07-22T12:15:08;3.95;;;3.72;;
10991;SDS011;5549;47.028;15.514;2022-07-22T12:17:36;4.72;;;4.32;;
10991;SDS011;5549;47.028;15.514;2022-07-22T12:20:10;4.70;;;4.20;;
10991;SDS011;5549;47.028;15.514;2022-07-22T12:22:45;4.70;;;4.40;;
10991;SDS011;5549;47.028;15.514;2022-07-22T12:25:13;4.10;;;3.90;;
10991;SDS011;5549;47.028;15.514;2022-07-22T12:27:42;3.87;;;3.67;;
10991;SDS011;5549;47.028;15.514;2022-07-22T12:30:27;3.87;;;3.67;;
10991;SDS011;5549;47.028;15.514;2022-07-22T12:32:54;4.80;;;4.40;;
10991;SDS011;5549;47.028;15.514;2022-07-22T12:35:24;4.87;;;4.00;;
10991;SDS011;5549;47.028;15.514;2022-07-22T12:37:56;4.67;;;4.27;;
10991;SDS011;5549;47.028;15.514;2022-07-22T12:40:34;4.27;;;4.00;;
10991;SDS011;5549;47.028;15.514;2022-07-22T12:43:03;4.60;;;4.30;;
10991;SDS011;5549;47.028;15.514;2022-07-22T12:45:34;4.43;;;4.13;;
10991;SDS011;5549;47.028;15.514;2022-07-22T12:48:07;4.57;;;4.28;;
10991;SDS011;5549;47.028;15.514;2022-07-22T12:50:37;4.53;;;4.23;;
10991;SDS011;5549;47.028;15.514;2022-07-22T12:53:08;4.30;;;4.00;;
10991;SDS011;5549;47.028;15.514;2022-07-22T12:55:41;4.40;;;4.10;;
10991;SDS011;5549;47.028;15.514;2022-07-22T12:58:11;4.50;;;4.10;;
10991;SDS011;5549;47.028;15.514;2022-07-22T13:00:40;4.40;;;4.10;;
10991;SDS011;5549;47.028;15.514;2022-07-22T13:03:11;4.47;;;4.17;;
10991;SDS011;5549;47.028;15.514;2022-07-22T13:05:39;5.07;;;4.37;;
10991;SDS011;5549;47.028;15.514;2022-07-22T13:08:09;4.13;;;3.80;;
10991;SDS011;5549;47.028;15.514;2022-07-22T13:10:38;3.93;;;3.73;;
10991;SDS011;5549;47.028;15.514;2022-07-22T13:13:09;4.57;;;4.17;;
10991;SDS011;5549;47.028;15.514;2022-07-22T13:15:37;4.33;;;4.10;;
10991;SDS011;5549;47.028;15.514;2022-07-22T13:18:07;4.37;;;3.93;;
10991;SDS011;5549;47.028;15.514;2022-07-22T13:20:35;4.60;;;4.30;;
10991;SDS011;5549;47.028;15.514;2022-07-22T13:23:03;4.37;;;4.10;;
10991;SDS011;5549;47.028;15.514;2022-07-22T13:25:35;4.33;;;4.03;;
10991;SDS011;5549;47.028;15.514;2022-07-22T13:28:03;4.13;;;3.87;;
10991;SDS011;5549;47.028;15.514;2022-07-22T13:30:31;5.20;;;4.27;;
10991;SDS011;5549;47.028;15.514;2022-07-22T13:32:59;4.17;;;3.97;;
10991;SDS011;5549;47.028;15.514;2022-07-22T13:35:27;4.33;;;3.83;;
10991;SDS011;5549;47.028;15.514;2022-07-22T13:37:56;4.20;;;3.90;;
10991;SDS011;5549;47.028;15.514;2022-07-22T13:40:24;4.87;;;4.40;;
10991;SDS011;5549;47.028;15.514;2022-07-22T13:42:53;4.20;;;4.00;;
10991;SDS011;5549;47.028;15.514;2022-07-22T13:45:23;4.17;;;3.97;;
10991;SDS011;5549;47.028;15.514;2022-07-22T13:47:51;4.23;;;3.93;;
10991;SDS011;5549;47.028;15.514;2022-07-22T13:50:19;3.97;;;3.77;;
10991;SDS011;5549;47.028;15.514;2022-07-22T13:52:49;4.17;;;3.87;;
10991;SDS011;5549;47.028;15.514;2022-07-22T13:55:17;4.70;;;4.40;;
10991;SDS011;5549;47.028;15.514;2022-07-22T13:57:47;4.43;;;4.13;;
10991;SDS011;5549;47.028;15.514;2022-07-22T14:00:16;4.30;;;4.00;;
10991;SDS011;5549;47.028;15.514;2022-07-22T14:02:44;4.63;;;4.33;;
10991;SDS011;5549;47.028;15.514;2022-07-22T14:05:12;4.33;;;4.03;;
10991;SDS011;5549;47.028;15.514;2022-07-22T14:07:40;4.17;;;3.97;;
10991;SDS011;5549;47.028;15.514;2022-07-22T14:10:09;4.50;;;4.20;;
10991;SDS011;5549;47.028;15.514;2022-07-22T14:12:39;4.23;;;3.83;;
10991;SDS011;5549;47.028;15.514;2022-07-22T14:15:07;4.13;;;3.93;;
10991;SDS011;5549;47.028;15.514;2022-07-22T14:17:37;4.10;;;3.80;;
10991;SDS011;5549;47.028;15.514;2022-07-22T14:20:07;3.77;;;3.53;;
10991;SDS011;5549;47.028;15.514;2022-07-22T14:22:36;4.27;;;4.07;;
10991;SDS011;5549;47.028;15.514;2022-07-22T14:25:04;4.30;;;4.00;;
10991;SDS011;5549;47.028;15.514;2022-07-22T14:27:32;4.73;;;4.33;;
10991;SDS011;5549;47.028;15.514;2022-07-22T14:30:00;4.63;;;4.33;;
10991;SDS011;5549;47.028;15.514;2022-07-22T14:32:32;4.43;;;4.13;;
10991;SDS011;5549;47.028;15.514;2022-07-22T14:35:01;4.50;;;4.20;;
10991;SDS011;5549;47.028;15.514;2022-07-22T14:37:31;4.70;;;4.40;;
10991;SDS011;5549;47.028;15.514;2022-07-22T14:39:59;4.50;;;4.20;;
10991;SDS011;5549;47.028;15.514;2022-07-22T14:42:26;4.40;;;4.10;;
10991;SDS011;5549;47.028;15.514;2022-07-22T14:44:54;4.47;;;4.07;;
10991;SDS011;5549;47.028;15.514;2022-07-22T14:47:24;5.03;;;4.57;;
10991;SDS011;5549;47.028;15.514;2022-07-22T14:49:52;4.83;;;4.47;;
10991;SDS011;5549;47.028;15.514;2022-07-22T14:52:21;4.60;;;4.30;;
10991;SDS011;5549;47.028;15.514;2022-07-22T14:54:48;4.90;;;4.40;;
10991;SDS011;5549;47.028;15.514;2022-07-22T14:57:18;4.60;;;4.30;;
10991;SDS011;5549;47.028;15.514;2022-07-22T14:59:46;4.90;;;4.50;;
10991;SDS011;5549;47.028;15.514;2022-07-22T15:02:14;4.77;;;4.37;;
10991;SDS011;5549;47.028;15.514;2022-07-22T15:04:41;4.50;;;4.10;;
10991;SDS011;5549;47.028;15.514;2022-07-22T15:07:09;5.70;;;5.20;;
10991;SDS011;5549;47.028;15.514;2022-07-22T15:09:40;4.57;;;4.23;;